createdAt,value
2022-08-26T00:02:38.538Z,22.40
2022-08-26T00:06:46.296Z,20.83
2022-08-26T00:10:49.606Z,28.13
2022-08-26T00:14:52.215Z,16.40
2022-08-26T00:18:55.753Z,20.05
2022-08-26T00:22:59.824Z,22.80
2022-08-26T00:27:02.381Z,20.45
2022-08-26T00:31:05.193Z,22.08
2022-08-26T00:35:10.398Z,21.75
2022-08-26T00:39:14.274Z,20.65
2022-08-26T00:43:18.907Z,22.48
2022-08-26T00:47:31.019Z,17.75
2022-08-26T00:51:38.649Z,17.40
2022-08-26T00:55:43.002Z,19.35
2022-08-26T00:59:48.222Z,17.15
2022-08-26T01:03:50.930Z,21.40
2022-08-26T01:07:55.051Z,15.15
2022-08-26T01:16:08.219Z,18.17
2022-08-26T01:20:19.771Z,30.95
2022-08-26T01:24:25.955Z,23.15
2022-08-26T01:28:32.376Z,21.42
2022-08-26T01:32:36.445Z,20.27
2022-08-26T01:36:42.308Z,20.55
2022-08-26T01:40:47.028Z,15.40
2022-08-26T01:44:53.224Z,19.58
2022-08-26T01:48:59.940Z,18.48
2022-08-26T01:53:09.693Z,19.67
2022-08-26T01:57:17.393Z,18.13
2022-08-26T02:01:21.196Z,23.77
2022-08-26T02:05:24.116Z,24.40
2022-08-26T02:09:27.445Z,18.35
2022-08-26T02:13:33.992Z,19.63
2022-08-26T02:17:40.943Z,21.10
2022-08-26T02:21:44.205Z,21.10
2022-08-26T02:25:51.701Z,19.75
2022-08-26T02:29:58.177Z,23.15
2022-08-26T02:34:08.831Z,16.75
2022-08-26T02:38:13.441Z,21.05
2022-08-26T02:42:15.995Z,28.60
2022-08-26T02:46:21.556Z,21.70
2022-08-26T02:50:30.730Z,23.75
2022-08-26T02:54:33.296Z,18.05
2022-08-26T02:58:36.276Z,23.92
2022-08-26T03:02:40.208Z,20.75
2022-08-26T03:06:42.981Z,22.52
2022-08-26T03:10:49.776Z,19.33
2022-08-26T03:14:52.347Z,18.58
2022-08-26T03:18:56.210Z,23.67
2022-08-26T03:22:58.810Z,19.38
2022-08-26T03:27:01.850Z,22.90
2022-08-26T03:31:08.584Z,25.08
2022-08-26T03:35:12.868Z,21.63
2022-08-26T03:39:16.505Z,19.27
2022-08-26T03:43:19.640Z,23.50
2022-08-26T03:47:22.520Z,22.88
2022-08-26T03:51:27.055Z,25.08
2022-08-26T03:55:31.883Z,24.23
2022-08-26T03:59:34.660Z,18.90
2022-08-26T04:03:55.904Z,23.00
2022-08-26T04:07:59.822Z,20.73
2022-08-26T04:12:03.576Z,17.85
2022-08-26T04:16:06.685Z,26.88
2022-08-26T04:20:13.780Z,26.42
2022-08-26T04:24:22.399Z,24.52
2022-08-26T04:28:24.950Z,25.70
2022-08-26T04:32:27.706Z,27.02
2022-08-26T04:36:30.401Z,25.83
2022-08-26T04:40:34.956Z,24.48
2022-08-26T04:44:38.224Z,25.15
2022-08-26T04:48:42.148Z,20.65
2022-08-26T04:52:44.688Z,28.10
2022-08-26T04:56:50.629Z,20.20
2022-08-26T05:00:55.405Z,19.85
2022-08-26T05:04:58.350Z,26.13
2022-08-26T05:09:01.863Z,25.50
2022-08-26T05:13:11.223Z,20.65
2022-08-26T05:17:15.079Z,20.08
2022-08-26T05:21:20.231Z,22.20
2022-08-26T05:25:23.786Z,22.35
2022-08-26T05:29:31.302Z,24.48
2022-08-26T05:33:34.224Z,23.98
2022-08-26T05:37:38.312Z,22.40
2022-08-26T05:41:43.120Z,22.42
2022-08-26T05:45:50.775Z,22.02
2022-08-26T05:49:54.394Z,17.70
2022-08-26T05:53:57.008Z,25.38
2022-08-26T05:58:01.025Z,20.90
2022-08-26T06:02:07.270Z,22.95
2022-08-26T06:06:13.193Z,24.42
2022-08-26T06:10:31.677Z,25.48
2022-08-26T06:14:36.009Z,24.17
2022-08-26T06:18:43.067Z,26.85
2022-08-26T06:23:03.299Z,22.77
2022-08-26T06:27:09.908Z,21.70
2022-08-26T06:31:15.362Z,26.42
2022-08-26T06:35:19.509Z,19.05
2022-08-26T06:39:22.711Z,25.67
2022-08-26T06:43:27.371Z,23.42
2022-08-26T06:47:31.190Z,25.52
2022-08-26T06:51:40.149Z,24.13
2022-08-26T06:55:43.941Z,19.83
2022-08-26T06:59:47.760Z,21.75
2022-08-26T07:03:57.059Z,31.60
2022-08-26T07:08:01.230Z,24.00
2022-08-26T07:12:04.525Z,20.35
2022-08-26T07:16:08.675Z,25.42
2022-08-26T07:20:12.961Z,24.23
2022-08-26T07:24:16.856Z,26.90
2022-08-26T07:28:20.011Z,23.73
2022-08-26T07:32:22.987Z,22.45
2022-08-26T07:36:28.071Z,23.15
2022-08-26T07:40:33.905Z,26.00
2022-08-26T07:44:37.354Z,29.58
2022-08-26T07:48:40.134Z,25.45
2022-08-26T07:52:49.266Z,32.58
2022-08-26T07:56:53.894Z,25.50
2022-08-26T08:00:58.891Z,27.85
2022-08-26T08:05:01.701Z,28.02
2022-08-26T08:09:06.078Z,30.50
2022-08-26T08:13:10.900Z,28.92
2022-08-26T08:17:15.721Z,20.30
2022-08-26T08:21:22.182Z,19.52
2022-08-26T08:25:26.327Z,18.17
2022-08-26T08:29:30.610Z,15.73
2022-08-26T08:33:34.403Z,14.93
2022-08-26T08:37:37.461Z,21.05
2022-08-26T08:41:53.292Z,15.35
2022-08-26T08:46:01.518Z,15.38
2022-08-26T08:50:18.507Z,23.45
2022-08-26T08:54:22.224Z,10.88
2022-08-26T08:58:36.395Z,16.77
2022-08-26T09:02:51.863Z,17.67
2022-08-26T09:11:03.205Z,15.50
2022-08-26T09:15:12.241Z,22.20
2022-08-26T09:19:22.953Z,18.83
2022-08-26T09:23:26.780Z,17.55
2022-08-26T09:27:39.168Z,15.15
2022-08-26T09:31:42.611Z,13.90
2022-08-26T09:35:48.811Z,14.10
2022-08-26T09:39:51.633Z,13.23
2022-08-26T09:44:20.772Z,17.02
2022-08-26T09:48:31.238Z,17.65
2022-08-26T09:52:35.122Z,17.92
2022-08-26T09:56:39.960Z,17.80
2022-08-26T10:00:44.138Z,11.82
2022-08-26T10:04:52.204Z,17.00
2022-08-26T10:08:59.395Z,15.38
2022-08-26T10:13:16.479Z,14.65
2022-08-26T10:17:27.452Z,12.48
2022-08-26T10:21:37.617Z,15.60
2022-08-26T10:25:46.703Z,16.65
2022-08-26T10:29:55.533Z,14.85
2022-08-26T10:34:00.480Z,15.82
2022-08-26T10:38:10.136Z,16.52
2022-08-26T10:42:20.240Z,17.95
2022-08-26T10:46:28.454Z,19.10
2022-08-26T10:50:34.235Z,17.88
2022-08-26T10:54:41.147Z,19.90
2022-08-26T10:58:59.196Z,17.25
2022-08-26T11:03:22.534Z,15.98
2022-08-26T11:07:43.918Z,12.93
2022-08-26T11:11:50.403Z,16.77
2022-08-26T11:16:02.342Z,16.83
2022-08-26T11:20:13.194Z,16.15
2022-08-26T11:24:42.696Z,12.95
2022-08-26T11:28:47.792Z,15.85
2022-08-26T11:32:53.289Z,13.63
2022-08-26T11:37:00.028Z,15.63
2022-08-26T11:41:11.797Z,15.43
2022-08-26T11:45:20.291Z,10.48
2022-08-26T11:49:24.811Z,12.63
2022-08-26T11:53:30.326Z,17.48
2022-08-26T11:57:35.005Z,11.73
2022-08-26T12:01:41.692Z,8.32
2022-08-26T12:05:47.459Z,11.15
2022-08-26T12:09:57.075Z,9.20
2022-08-26T12:14:02.399Z,11.38
2022-08-26T12:18:28.582Z,11.90
2022-08-26T12:22:35.885Z,12.45
2022-08-26T12:26:40.513Z,14.27
2022-08-26T12:30:59.880Z,12.50
2022-08-26T12:39:15.503Z,18.60
2022-08-26T12:43:44.242Z,19.35
2022-08-26T12:47:47.231Z,15.45
2022-08-26T12:51:51.135Z,14.93
2022-08-26T12:55:56.517Z,10.50
2022-08-26T13:00:29.467Z,16.02
2022-08-26T13:04:41.807Z,18.08
2022-08-26T13:08:46.194Z,16.20
2022-08-26T13:12:48.739Z,16.65
2022-08-26T13:16:53.409Z,15.15
2022-08-26T13:20:56.193Z,19.52
2022-08-26T13:24:58.746Z,19.25
2022-08-26T13:29:02.464Z,16.83
2022-08-26T13:33:08.184Z,18.35
2022-08-26T13:37:11.860Z,16.45
2022-08-26T13:41:14.861Z,23.65
2022-08-26T13:45:18.695Z,15.27
2022-08-26T13:49:23.019Z,17.83
2022-08-26T13:53:25.600Z,20.38
2022-08-26T13:57:29.899Z,21.30
2022-08-26T14:01:33.348Z,23.33
2022-08-26T14:05:37.407Z,12.40
2022-08-26T14:09:40.025Z,14.25
2022-08-26T14:13:42.679Z,16.90
2022-08-26T14:17:46.567Z,14.20
2022-08-26T14:21:50.507Z,15.95
2022-08-26T14:25:53.142Z,13.05
2022-08-26T14:29:55.848Z,13.73
2022-08-26T14:34:00.153Z,15.10
2022-08-26T14:38:04.075Z,15.45
2022-08-26T14:42:07.534Z,16.40
2022-08-26T14:46:10.177Z,13.20
2022-08-26T14:50:14.291Z,20.85
2022-08-26T14:54:19.738Z,15.20
2022-08-26T14:58:22.280Z,15.23
2022-08-26T15:02:32.676Z,17.27
2022-08-26T15:06:38.240Z,15.50
2022-08-26T15:10:42.204Z,21.02
2022-08-26T15:14:44.769Z,13.55
2022-08-26T15:18:47.341Z,12.73
2022-08-26T15:22:49.883Z,18.38
2022-08-26T15:26:55.762Z,18.13
2022-08-26T15:30:58.425Z,14.07
2022-08-26T15:35:04.459Z,19.27
2022-08-26T15:39:11.749Z,19.27
2022-08-26T15:43:28.451Z,18.85
2022-08-26T15:47:31.735Z,17.88
2022-08-26T15:51:45.097Z,18.15
2022-08-26T15:55:49.255Z,15.38
2022-08-26T15:59:53.738Z,18.05
2022-08-26T16:03:57.149Z,16.23
2022-08-26T16:07:59.964Z,17.30
2022-08-26T16:12:02.736Z,21.27
2022-08-26T16:16:07.877Z,16.17
2022-08-26T16:20:10.549Z,17.65
2022-08-26T16:24:13.576Z,20.15
2022-08-26T16:28:16.990Z,20.40
2022-08-26T16:36:34.687Z,16.50
2022-08-26T16:40:38.594Z,20.58
2022-08-26T16:44:45.176Z,21.10
2022-08-26T16:48:49.086Z,16.08
2022-08-26T16:52:55.605Z,12.63
2022-08-26T16:57:13.071Z,10.45
2022-08-26T17:01:16.216Z,9.90
2022-08-26T17:05:20.452Z,14.70
2022-08-26T17:09:23.072Z,13.45
2022-08-26T17:17:38.219Z,15.90
2022-08-26T17:21:42.120Z,14.60
2022-08-26T17:25:44.919Z,11.65
2022-08-26T17:29:47.506Z,15.38
2022-08-26T17:37:59.668Z,17.85
2022-08-26T17:42:02.228Z,18.70
2022-08-26T17:46:07.785Z,18.80
2022-08-26T17:50:13.769Z,18.33
2022-08-26T17:54:17.919Z,16.77
2022-08-26T17:58:23.437Z,17.55
2022-08-26T18:06:33.980Z,44.42
2022-08-26T18:10:37.905Z,16.10
2022-08-26T18:14:40.488Z,0.25
2022-08-26T18:18:43.147Z,0.88
2022-08-26T18:22:47.381Z,0.08
2022-08-26T18:34:57.087Z,12.35
